createdAt,value
2022-11-29T06:02:13.624Z,101444.59
2022-11-29T06:07:41.454Z,101443.72
2022-11-29T06:13:23.451Z,101444.44
2022-11-29T06:19:12.117Z,101451.13
2022-11-29T06:25:11.413Z,101451.88
2022-11-29T06:30:56.501Z,101472.09
2022-11-29T06:36:32.784Z,101464.69
2022-11-29T06:41:53.665Z,101477.31
2022-11-29T06:47:24.109Z,101470.63
2022-11-29T06:53:22.409Z,101485.97
2022-11-29T06:59:07.167Z,101481.09
2022-11-29T07:04:45.663Z,101490.44
2022-11-29T07:10:14.978Z,101490.78
2022-11-29T07:15:37.550Z,101500.47
2022-11-29T07:21:16.290Z,101496.31
2022-11-29T07:26:37.287Z,101510.53
2022-11-29T07:32:34.727Z,101510.03
2022-11-29T07:38:10.127Z,101525.19
2022-11-29T07:43:36.980Z,101534.78
2022-11-29T07:48:57.672Z,101525.84
2022-11-29T07:54:20.045Z,101539.72
2022-11-29T07:59:40.876Z,101541.66
2022-11-29T08:05:01.807Z,101544.34
2022-11-29T08:10:22.982Z,101547.06
2022-11-29T08:15:48.651Z,101546.63
2022-11-29T08:21:09.476Z,101544.03
2022-11-29T08:26:31.929Z,101548.41
2022-11-29T08:31:53.932Z,101550.34
2022-11-29T08:37:14.945Z,101551.69
2022-11-29T08:42:35.726Z,101565.91
2022-11-29T08:47:56.612Z,101562.19
2022-11-29T08:53:36.733Z,101558.09
2022-11-29T08:58:57.525Z,101570.06
2022-11-29T09:04:18.393Z,101573.31
2022-11-29T09:09:39.090Z,101570.69
2022-11-29T09:14:59.828Z,101578.47
2022-11-29T09:20:20.572Z,101582.75
2022-11-29T09:25:41.521Z,101590.28
2022-11-29T09:31:08.422Z,101586.84
2022-11-29T09:36:30.274Z,101591.13
2022-11-29T09:42:09.793Z,101590.97
2022-11-29T09:47:43.065Z,101590.53
2022-11-29T09:53:48.553Z,101593.34
2022-11-29T09:59:25.869Z,101588.88
2022-11-29T10:04:53.582Z,101591.63
2022-11-29T10:10:24.891Z,101591.84
2022-11-29T10:15:50.370Z,101598.75
2022-11-29T10:21:19.954Z,101590.72
2022-11-29T10:26:41.451Z,101604.44
2022-11-29T10:32:09.996Z,101597.72
2022-11-29T10:37:32.872Z,101602.88
2022-11-29T10:42:53.967Z,101598.88
2022-11-29T10:48:18.382Z,101612.31
2022-11-29T10:53:39.558Z,101607.41
2022-11-29T10:59:04.390Z,101605.75
2022-11-29T11:04:30.086Z,101611.25
2022-11-29T11:09:55.651Z,101603.22
2022-11-29T11:15:28.690Z,101612.22
2022-11-29T11:21:10.941Z,101603.72
2022-11-29T11:26:45.538Z,101602.63
2022-11-29T11:32:17.048Z,101609.06
2022-11-29T11:37:38.123Z,101609.41
2022-11-29T11:43:02.399Z,101611.16
2022-11-29T11:48:23.694Z,101610.53
2022-11-29T11:53:54.969Z,101609.78
2022-11-29T11:59:24.387Z,101616.22
2022-11-29T12:04:45.696Z,101620.53
2022-11-29T12:10:17.366Z,101618.78
2022-11-29T12:15:41.489Z,101621.56
2022-11-29T12:21:25.492Z,101626.94
2022-11-29T12:27:03.146Z,101630.84
2022-11-29T12:32:55.936Z,101635.31
2022-11-29T12:38:36.671Z,101636.34
2022-11-29T12:44:19.848Z,101646.34
2022-11-29T12:50:11.531Z,101647.22
2022-11-29T12:56:02.312Z,101659.19
2022-11-29T13:01:37.006Z,101660.34
2022-11-29T13:07:04.403Z,101656.75
2022-11-29T13:12:44.033Z,101653.44
2022-11-29T13:18:29.796Z,101662.16
2022-11-29T13:24:08.295Z,101670.66
2022-11-29T13:29:30.180Z,101664.34
2022-11-29T13:34:53.109Z,101662.50
2022-11-29T13:40:32.151Z,101673.97
2022-11-29T13:45:58.643Z,101676.03
2022-11-29T13:51:33.285Z,101684.81
2022-11-29T13:57:10.888Z,101687.78
2022-11-29T14:02:32.232Z,101684.19
2022-11-29T14:08:27.194Z,101681.47
2022-11-29T14:14:17.107Z,101683.84
2022-11-29T14:19:38.065Z,101684.44
2022-11-29T14:25:01.392Z,101687.56
2022-11-29T14:30:44.785Z,101701.72
2022-11-29T14:36:15.016Z,101697.81
2022-11-29T14:41:51.023Z,101706.72
2022-11-29T14:47:27.039Z,101705.66
2022-11-29T14:52:52.186Z,101707.00
2022-11-29T14:58:20.222Z,101711.75
2022-11-29T15:03:49.579Z,101717.25
2022-11-29T15:09:19.000Z,101710.78
2022-11-29T15:15:01.966Z,101712.13
2022-11-29T15:20:42.175Z,101723.56
2022-11-29T15:26:03.238Z,101723.97
2022-11-29T15:31:24.352Z,101736.31
2022-11-29T15:36:45.704Z,101737.63
2022-11-29T15:42:11.450Z,101741.63
2022-11-29T15:47:32.770Z,101739.84
2022-11-29T15:53:03.755Z,101756.53
2022-11-29T15:58:29.295Z,101760.69
2022-11-29T16:03:54.519Z,101766.91
2022-11-29T16:09:19.861Z,101768.53
2022-11-29T16:14:58.805Z,101773.44
2022-11-29T16:20:19.840Z,101780.84
2022-11-29T16:25:55.755Z,101784.69
2022-11-29T16:31:30.540Z,101778.75
2022-11-29T16:37:02.751Z,101788.69
2022-11-29T16:42:32.352Z,101785.09
2022-11-29T16:48:00.204Z,101793.63
2022-11-29T16:53:39.498Z,101804.16
2022-11-29T16:59:20.697Z,101802.34
2022-11-29T17:04:43.783Z,101811.59
2022-11-29T17:10:07.994Z,101819.19
2022-11-29T17:15:28.810Z,101825.72
2022-11-29T17:20:49.611Z,101820.81
2022-11-29T17:26:10.599Z,101817.19
2022-11-29T17:31:31.682Z,101827.00
2022-11-29T17:36:52.658Z,101830.25
2022-11-29T17:42:13.589Z,101835.31
2022-11-29T17:47:34.561Z,101844.06
2022-11-29T17:52:55.440Z,101838.66
2022-11-29T17:58:16.392Z,101835.41
2022-11-29T18:03:40.202Z,101847.19
2022-11-29T18:09:02.117Z,101840.97
2022-11-29T18:14:23.982Z,101844.78
2022-11-29T18:19:45.215Z,101845.94
2022-11-29T18:25:37.179Z,101848.13
2022-11-29T18:30:47.695Z,101856.47
2022-11-29T18:36:14.349Z,101855.53
2022-11-29T18:41:36.078Z,101865.53
2022-11-29T18:46:57.314Z,101866.06
2022-11-29T18:52:18.316Z,101858.16
2022-11-29T18:57:39.102Z,101868.28
2022-11-29T19:02:59.959Z,101867.38
2022-11-29T19:08:20.847Z,101863.94
2022-11-29T19:13:42.240Z,101866.31
2022-11-29T19:19:03.947Z,101871.38
2022-11-29T19:24:25.056Z,101875.38
2022-11-29T19:29:46.166Z,101883.84
2022-11-29T19:35:07.895Z,101878.97
2022-11-29T19:40:28.891Z,101880.75
2022-11-29T19:45:49.631Z,101884.75
2022-11-29T19:51:11.864Z,101882.22
2022-11-29T19:56:34.198Z,101878.63
2022-11-29T20:01:54.805Z,101876.44
2022-11-29T20:07:15.664Z,101891.94
2022-11-29T20:12:37.356Z,101896.56
2022-11-29T20:17:58.667Z,101902.75
2022-11-29T20:23:19.482Z,101897.91
2022-11-29T20:28:40.610Z,101905.88
2022-11-29T20:34:03.103Z,101909.16
2022-11-29T20:39:42.731Z,101903.94
2022-11-29T20:45:07.396Z,101894.19
2022-11-29T20:50:31.571Z,101902.50
2022-11-29T20:55:52.444Z,101906.34
2022-11-29T21:01:13.450Z,101907.97
2022-11-29T21:06:37.422Z,101916.47
2022-11-29T21:11:58.778Z,101911.22
2022-11-29T21:17:20.123Z,101925.53
2022-11-29T21:22:48.342Z,101927.50
2022-11-29T21:33:28.768Z,101931.63
2022-11-29T21:34:14.201Z,101935.63
2022-11-29T21:34:57.371Z,101941.31
2022-11-29T21:35:33.050Z,101934.38
2022-11-29T21:36:09.605Z,101939.53
2022-11-29T21:36:57.859Z,101933.06
2022-11-29T21:38:19.899Z,57550.94
2022-11-29T21:38:57.120Z,57550.94
2022-11-29T21:39:35.812Z,57550.94
2022-11-29T21:40:12.829Z,57550.94
2022-11-29T21:40:48.895Z,57550.94
2022-11-29T21:41:24.790Z,57550.94
2022-11-29T21:46:30.300Z,57550.94
2022-11-29T21:47:06.018Z,57550.94
2022-11-29T21:52:43.587Z,101938.97
2022-11-29T21:53:26.356Z,101938.84
2022-11-29T21:53:59.248Z,101943.25
2022-11-29T21:54:34.821Z,101949.16
2022-11-29T21:55:17.692Z,101939.25
2022-11-29T21:56:02.651Z,101941.28
2022-11-29T21:56:39.331Z,101949.03
2022-11-29T21:57:15.348Z,101945.84
2022-11-29T21:57:59.506Z,101944.19
2022-11-29T22:02:50.988Z,101946.66
2022-11-29T22:03:22.386Z,101950.84
2022-11-29T22:04:13.967Z,101951.56
2022-11-29T22:04:45.565Z,101944.38
2022-11-29T22:05:18.005Z,101950.50
2022-11-29T22:05:49.005Z,101950.59
2022-11-29T22:06:37.326Z,101943.75
2022-11-29T22:07:08.630Z,101957.81
2022-11-29T22:14:30.461Z,101952.97
2022-11-29T22:19:51.525Z,101956.06
2022-11-29T22:25:12.408Z,101962.09
2022-11-29T22:30:33.173Z,101955.63
2022-11-29T22:35:54.215Z,101960.03
2022-11-29T22:41:16.356Z,101958.97
